Time,TemperatureF,DewpointF,PressureIn,WindDirection,WindDirectionDegrees,WindSpeedMPH,WindSpeedGustMPH,Humidity,HourlyPrecipIn,Conditions,Clouds,dailyrainin,SoftwareType,DateUTC
2013-01-11 00:00:00,49.5,39.7,30.31,ENE,69,1.0,1.0,69,0.00,,,0.00,Wunderground v.1.15,2013-01-11 05:00:00,
2013-01-11 00:05:00,49.2,39.8,30.31,N/A,-737280,0.0,-999.0,70,0.00,,,0.07,Wunderground v.1.15,2013-01-11 05:05:00,
2013-01-11 00:10:00,48.8,39.8,30.31,ENE,69,0.0,0.0,71,0.00,,,0.00,Wunderground v.1.15,2013-01-11 05:10:00,
2013-01-11 00:15:00,48.2,39.2,30.30,ENE,69,0.0,0.0,71,0.00,,,0.00,Wunderground v.1.15,2013-01-11 05:15:00,
2013-01-11 00:20:00,48.3,39.3,30.31,N/A,-737280,0.0,-999.0,71,0.00,,,0.07,Wunderground v.1.15,2013-01-11 05:20:00,
2013-01-11 00:25:00,48.9,39.5,30.30,ENE,69,0.0,0.0,70,0.00,,,0.00,Wunderground v.1.15,2013-01-11 05:25:00,
2013-01-11 00:30:00,50.1,39.9,30.30,ENE,77,0.0,0.0,68,0.00,,,0.00,Wunderground v.1.15,2013-01-11 05:30:00,
2013-01-11 00:35:00,50.5,40.3,30.30,N/A,-737280,0.0,-999.0,68,0.00,,,0.07,Wunderground v.1.15,2013-01-11 05:35:00,
2013-01-11 00:40:00,51.7,41.1,30.30,SSE,166,1.0,1.0,67,0.00,,,0.00,Wunderground v.1.15,2013-01-11 05:40:00,
2013-01-11 00:45:00,52.3,41.3,30.30,SSE,158,2.0,-999.0,66,0.00,,,0.07,Wunderground v.1.15,2013-01-11 05:45:00,
2013-01-11 00:50:00,52.8,41.4,30.30,SSE,155,1.0,1.0,65,0.00,,,0.00,Wunderground v.1.15,2013-01-11 05:50:00,
2013-01-11 00:55:00,52.6,41.2,30.30,SSE,154,0.0,1.0,65,0.00,,,0.00,Wunderground v.1.15,2013-01-11 05:55:00,
2013-01-11 01:00:00,52.6,40.8,30.29,SSE,156,0.0,0.0,64,0.00,,,0.00,Wunderground v.1.15,2013-01-11 06:00:00,
2013-01-11 01:05:00,52.5,40.7,30.28,N/A,-737280,0.0,-999.0,64,0.00,,,0.07,Wunderground v.1.15,2013-01-11 06:05:00,
2013-01-11 01:10:00,52.3,40.9,30.28,SSE,156,0.0,0.0,65,0.00,,,0.00,Wunderground v.1.15,2013-01-11 06:10:00,
2013-01-11 01:15:00,52.2,40.4,30.28,N/A,-737280,0.0,-999.0,64,0.00,,,0.07,Wunderground v.1.15,2013-01-11 06:15:00,
2013-01-11 01:20:00,52.2,40.8,30.27,SSE,156,0.0,0.0,65,0.00,,,0.00,Wunderground v.1.15,2013-01-11 06:20:00,
2013-01-11 01:25:00,52.0,40.6,30.28,N/A,-737280,0.0,-999.0,65,0.00,,,0.07,Wunderground v.1.15,2013-01-11 06:25:00,
2013-01-11 01:30:00,51.7,40.7,30.28,SSE,156,0.0,0.0,66,0.00,,,0.00,Wunderground v.1.15,2013-01-11 06:30:00,
2013-01-11 01:35:00,51.6,41.0,30.28,N/A,-737280,0.0,-999.0,67,0.00,,,0.07,Wunderground v.1.15,2013-01-11 06:35:00,
2013-01-11 01:40:00,50.8,40.6,30.28,SSE,156,0.0,0.0,68,0.00,,,0.00,Wunderground v.1.15,2013-01-11 06:40:00,
2013-01-11 01:45:00,50.7,40.5,30.28,N/A,-737280,0.0,-999.0,68,0.00,,,0.07,Wunderground v.1.15,2013-01-11 06:45:00,
2013-01-11 01:50:00,51.1,42.0,30.28,ESE,113,1.0,5.0,71,0.00,,,0.00,Wunderground v.1.15,2013-01-11 06:50:00,
2013-01-11 01:55:00,51.4,41.9,30.28,N/A,-737280,0.0,-999.0,70,0.00,,,0.07,Wunderground v.1.15,2013-01-11 06:55:00,
2013-01-11 02:00:00,51.6,42.1,30.29,SE,144,1.0,1.0,70,0.00,,,0.00,Wunderground v.1.15,2013-01-11 07:00:00,
2013-01-11 02:05:00,51.6,42.1,30.28,ENE,68,2.0,-999.0,70,0.00,,,0.07,Wunderground v.1.15,2013-01-11 07:05:00,
2013-01-11 02:10:00,51.3,41.8,30.27,SE,144,2.0,2.0,70,0.00,,,0.00,Wunderground v.1.15,2013-01-11 07:10:00,
2013-01-11 02:15:00,51.3,42.2,30.28,SSE,163,1.0,2.0,71,0.00,,,0.00,Wunderground v.1.15,2013-01-11 07:15:00,
2013-01-11 02:20:00,51.1,42.0,30.27,SSE,163,0.0,0.0,71,0.00,,,0.00,Wunderground v.1.15,2013-01-11 07:20:00,
2013-01-11 02:25:00,51.0,41.9,30.27,N/A,-737280,0.0,-999.0,71,0.00,,,0.07,Wunderground v.1.15,2013-01-11 07:25:00,
2013-01-11 02:30:00,51.0,41.9,30.26,SSE,163,0.0,0.0,71,0.00,,,0.00,Wunderground v.1.15,2013-01-11 07:30:00,
2013-01-11 02:35:00,51.0,42.3,30.26,SE,135,4.0,-999.0,72,0.00,,,0.07,Wunderground v.1.15,2013-01-11 07:35:00,
2013-01-11 02:40:00,50.5,41.8,30.26,NNE,15,1.0,1.0,72,0.00,,,0.00,Wunderground v.1.15,2013-01-11 07:40:00,
2013-01-11 02:45:00,50.4,42.1,30.26,NNE,13,1.0,1.0,73,0.00,,,0.00,Wunderground v.1.15,2013-01-11 07:45:00,
2013-01-11 02:50:00,50.4,42.1,30.26,N/A,-737280,0.0,-999.0,73,0.00,,,0.07,Wunderground v.1.15,2013-01-11 07:50:00,
2013-01-11 02:55:00,50.7,43.4,30.26,NNE,13,0.0,0.0,76,0.00,,,0.00,Wunderground v.1.15,2013-01-11 07:55:00,
2013-01-11 03:00:00,51.0,43.7,30.27,NNE,13,0.0,0.0,76,0.00,,,0.00,Wunderground v.1.15,2013-01-11 08:00:00,
2013-01-11 03:05:00,50.8,43.2,30.27,NNW,338,4.0,-999.0,75,0.00,,,0.07,Wunderground v.1.15,2013-01-11 08:05:00,
2013-01-11 03:10:00,50.7,43.4,30.27,NNW,336,1.0,1.0,76,0.00,,,0.00,Wunderground v.1.15,2013-01-11 08:10:00,
2013-01-11 03:15:00,50.7,43.4,30.27,N/A,-737280,0.0,-999.0,76,0.00,,,0.07,Wunderground v.1.15,2013-01-11 08:15:00,
2013-01-11 03:20:00,51.0,44.0,30.27,NNW,336,0.0,0.0,77,0.00,,,0.00,Wunderground v.1.15,2013-01-11 08:20:00,
2013-01-11 03:25:00,51.3,44.0,30.27,NNW,338,0.0,0.0,76,0.00,,,0.00,Wunderground v.1.15,2013-01-11 08:25:00,
2013-01-11 03:30:00,51.3,43.6,30.26,NNW,340,0.0,0.0,75,0.00,,,0.00,Wunderground v.1.15,2013-01-11 08:30:00,
2013-01-11 03:35:00,51.1,43.8,30.26,NNW,338,1.0,-999.0,76,0.00,,,0.07,Wunderground v.1.15,2013-01-11 08:35:00,
2013-01-11 03:40:00,50.8,43.5,30.24,NNW,346,1.0,4.0,76,0.00,,,0.00,Wunderground v.1.15,2013-01-11 08:40:00,
2013-01-11 03:45:00,50.7,43.8,30.24,North,0,4.0,-999.0,77,0.00,,,0.07,Wunderground v.1.15,2013-01-11 08:45:00,
2013-01-11 03:50:00,50.7,44.1,30.25,North,9,2.0,2.0,78,0.00,,,0.00,Wunderground v.1.15,2013-01-11 08:50:00,
2013-01-11 03:55:00,50.8,44.2,30.25,North,0,0.0,-999.0,78,0.00,,,0.07,Wunderground v.1.15,2013-01-11 08:55:00,
2013-01-11 04:00:00,51.0,44.7,30.24,North,9,1.0,1.0,79,0.00,,,0.00,Wunderground v.1.15,2013-01-11 09:00:00,
2013-01-11 04:05:00,51.0,45.0,30.24,North,0,3.0,-999.0,80,0.00,,,0.07,Wunderground v.1.15,2013-01-11 09:05:00,
2013-01-11 04:10:00,51.0,45.0,30.24,North,9,1.0,1.0,80,0.00,,,0.00,Wunderground v.1.15,2013-01-11 09:10:00,
2013-01-11 04:15:00,51.0,45.0,30.25,N/A,-737280,0.0,-999.0,80,0.00,,,0.07,Wunderground v.1.15,2013-01-11 09:15:00,
2013-01-11 04:20:00,51.0,45.0,30.24,North,9,0.0,3.0,80,0.00,,,0.00,Wunderground v.1.15,2013-01-11 09:20:00,
2013-01-11 04:25:00,51.0,45.0,30.23,North,9,0.0,3.0,80,0.00,,,0.00,Wunderground v.1.15,2013-01-11 09:25:00,
2013-01-11 04:30:00,51.0,45.4,30.23,North,0,2.0,-999.0,81,0.00,,,0.07,Wunderground v.1.15,2013-01-11 09:30:00,
2013-01-11 04:35:00,51.1,45.5,30.23,North,9,1.0,1.0,81,0.00,,,0.00,Wunderground v.1.15,2013-01-11 09:35:00,
2013-01-11 04:40:00,51.1,45.5,30.23,North,9,0.0,0.0,81,0.00,,,0.00,Wunderground v.1.15,2013-01-11 09:40:00,
2013-01-11 04:45:00,51.3,46.0,30.22,North,0,1.0,-999.0,82,0.00,,,0.07,Wunderground v.1.15,2013-01-11 09:45:00,
2013-01-11 04:50:00,51.6,46.6,30.22,ENE,76,3.0,5.0,83,0.00,,,0.00,Wunderground v.1.15,2013-01-11 09:50:00,
2013-01-11 04:55:00,51.7,46.4,30.21,NE,37,5.0,6.0,82,0.00,,,0.00,Wunderground v.1.15,2013-01-11 09:55:00,
2013-01-11 05:00:00,51.7,46.1,30.21,NNE,32,5.0,5.0,81,0.00,,,0.00,Wunderground v.1.15,2013-01-11 10:00:00,
2013-01-11 05:05:00,51.6,46.3,30.20,NNE,23,4.0,-999.0,82,0.00,,,0.07,Wunderground v.1.15,2013-01-11 10:05:00,
2013-01-11 05:10:00,51.3,46.3,30.20,NE,42,5.0,7.0,83,0.00,,,0.00,Wunderground v.1.15,2013-01-11 10:10:00,
2013-01-11 05:15:00,51.1,46.1,30.21,NE,45,5.0,-999.0,83,0.00,,,0.07,Wunderground v.1.15,2013-01-11 10:15:00,
2013-01-11 05:20:00,51.0,46.3,30.20,NE,41,5.0,6.0,84,0.00,,,0.00,Wunderground v.1.15,2013-01-11 10:20:00,
2013-01-11 05:25:00,51.0,46.3,30.20,NE,45,4.0,-999.0,84,0.00,,,0.07,Wunderground v.1.15,2013-01-11 10:25:00,
2013-01-11 05:30:00,50.7,46.4,30.20,NE,41,5.0,5.0,85,0.00,,,0.00,Wunderground v.1.15,2013-01-11 10:30:00,
2013-01-11 05:35:00,50.7,46.4,30.19,NE,45,5.0,-999.0,85,0.00,,,0.07,Wunderground v.1.15,2013-01-11 10:35:00,
2013-01-11 05:40:00,50.2,46.5,30.19,NE,40,5.0,5.0,87,0.00,,,0.00,Wunderground v.1.15,2013-01-11 10:40:00,
2013-01-11 05:45:00,49.9,46.5,30.19,NE,40,6.0,6.0,88,0.00,,,0.00,Wunderground v.1.15,2013-01-11 10:45:00,
2013-01-11 05:50:00,49.8,46.7,30.19,NE,51,6.0,6.0,89,0.00,,,0.01,Wunderground v.1.15,2013-01-11 10:50:00,
2013-01-11 05:55:00,49.6,46.5,30.19,NE,45,7.0,-999.0,89,0.01,,,0.07,Wunderground v.1.15,2013-01-11 10:55:00,
2013-01-11 06:00:00,49.6,46.5,30.20,NE,42,6.0,8.0,89,0.00,,,0.01,Wunderground v.1.15,2013-01-11 11:00:00,
2013-01-11 06:05:00,49.6,46.8,30.19,NE,37,6.0,8.0,90,0.00,,,0.01,Wunderground v.1.15,2013-01-11 11:05:00,
2013-01-11 06:10:00,49.8,47.0,30.19,NE,45,5.0,-999.0,90,0.01,,,0.07,Wunderground v.1.15,2013-01-11 11:10:00,
2013-01-11 06:15:00,49.9,47.1,30.19,NNE,31,4.0,6.0,90,0.00,,,0.01,Wunderground v.1.15,2013-01-11 11:15:00,
2013-01-11 06:20:00,50.1,47.3,30.19,NE,34,4.0,5.0,90,0.00,,,0.01,Wunderground v.1.15,2013-01-11 11:20:00,
2013-01-11 06:25:00,50.2,47.4,30.19,NE,35,4.0,5.0,90,0.00,,,0.01,Wunderground v.1.15,2013-01-11 11:25:00,
2013-01-11 06:30:00,50.4,47.3,30.19,NE,37,3.0,5.0,89,0.00,,,0.01,Wunderground v.1.15,2013-01-11 11:30:00,
2013-01-11 06:35:00,50.5,47.4,30.19,NE,38,3.0,5.0,89,0.00,,,0.01,Wunderground v.1.15,2013-01-11 11:35:00,
2013-01-11 06:40:00,50.7,47.6,30.18,NE,44,4.0,6.0,89,0.00,,,0.01,Wunderground v.1.15,2013-01-11 11:40:00,
2013-01-11 06:45:00,50.7,47.6,30.18,NE,39,5.0,6.0,89,0.00,,,0.01,Wunderground v.1.15,2013-01-11 11:45:00,
2013-01-11 06:50:00,50.7,47.6,30.19,NE,45,4.0,-999.0,89,0.00,,,0.07,Wunderground v.1.15,2013-01-11 11:50:00,
2013-01-11 06:55:00,50.5,47.4,30.19,NE,46,4.0,5.0,89,0.00,,,0.01,Wunderground v.1.15,2013-01-11 11:55:00,
2013-01-11 07:00:00,50.4,47.3,30.19,NE,40,3.0,8.0,89,0.00,,,0.01,Wunderground v.1.15,2013-01-11 12:00:00,
2013-01-11 07:05:00,50.2,47.1,30.19,NE,40,3.0,8.0,89,0.00,,,0.01,Wunderground v.1.15,2013-01-11 12:05:00,
2013-01-11 07:10:00,50.1,47.0,30.19,NE,45,0.0,-999.0,89,0.00,,,0.07,Wunderground v.1.15,2013-01-11 12:10:00,
2013-01-11 07:15:00,50.1,47.3,30.19,NE,38,2.0,4.0,90,0.00,,,0.01,Wunderground v.1.15,2013-01-11 12:15:00,
2013-01-11 07:20:00,50.1,47.3,30.19,NE,36,2.0,7.0,90,0.00,,,0.01,Wunderground v.1.15,2013-01-11 12:20:00,
2013-01-11 07:25:00,50.1,47.0,30.19,NNE,32,4.0,7.0,89,0.00,,,0.01,Wunderground v.1.15,2013-01-11 12:25:00,
2013-01-11 07:30:00,49.9,47.1,30.19,NNE,32,3.0,3.0,90,0.00,,,0.01,Wunderground v.1.15,2013-01-11 12:30:00,
2013-01-11 07:35:00,49.9,47.1,30.20,N/A,-737280,0.0,-999.0,90,0.00,,,0.07,Wunderground v.1.15,2013-01-11 12:35:00,
2013-01-11 07:40:00,49.9,47.1,30.19,NNE,30,1.0,1.0,90,0.00,,,0.01,Wunderground v.1.15,2013-01-11 12:40:00,
2013-01-11 07:45:00,50.1,47.3,30.19,NNE,23,2.0,-999.0,90,0.00,,,0.07,Wunderground v.1.15,2013-01-11 12:45:00,
2013-01-11 07:50:00,50.2,47.4,30.19,NNE,31,2.0,2.0,90,0.00,,,0.01,Wunderground v.1.15,2013-01-11 12:50:00,
2013-01-11 07:55:00,50.4,47.6,30.20,NNE,32,2.0,2.0,90,0.00,,,0.01,Wunderground v.1.15,2013-01-11 12:55:00,
2013-01-11 08:00:00,50.4,47.3,30.20,NNE,23,2.0,-999.0,89,0.00,,,0.07,Wunderground v.1.15,2013-01-11 13:00:00,
2013-01-11 08:05:00,50.4,47.6,30.20,NNE,32,1.0,2.0,90,0.00,,,0.01,Wunderground v.1.15,2013-01-11 13:05:00,
2013-01-11 08:10:00,50.2,47.4,30.20,NNE,32,1.0,5.0,90,0.00,,,0.01,Wunderground v.1.15,2013-01-11 13:10:00,
2013-01-11 08:15:00,50.2,47.4,30.20,NNE,23,5.0,-999.0,90,0.00,,,0.07,Wunderground v.1.15,2013-01-11 13:15:00,
2013-01-11 08:20:00,49.9,47.1,30.20,NE,35,3.0,3.0,90,0.00,,,0.01,Wunderground v.1.15,2013-01-11 13:20:00,
2013-01-11 08:25:00,49.9,47.1,30.20,NE,45,4.0,-999.0,90,0.00,,,0.07,Wunderground v.1.15,2013-01-11 13:25:00,
2013-01-11 08:30:00,49.9,47.4,30.20,NE,36,3.0,3.0,91,0.00,,,0.01,Wunderground v.1.15,2013-01-11 13:30:00,
2013-01-11 08:35:00,49.9,47.4,30.20,NE,45,6.0,-999.0,91,0.00,,,0.07,Wunderground v.1.15,2013-01-11 13:35:00,
2013-01-11 08:40:00,49.9,47.4,30.20,NE,37,4.0,4.0,91,0.00,,,0.01,Wunderground v.1.15,2013-01-11 13:40:00,
2013-01-11 08:45:00,49.9,47.4,30.20,NE,45,5.0,-999.0,91,0.00,,,0.07,Wunderground v.1.15,2013-01-11 13:45:00,
2013-01-11 08:50:00,49.8,47.6,30.20,NE,38,5.0,5.0,92,0.00,,,0.01,Wunderground v.1.15,2013-01-11 13:50:00,
2013-01-11 08:55:00,49.8,47.6,30.20,NE,45,6.0,-999.0,92,0.01,,,0.07,Wunderground v.1.15,2013-01-11 13:55:00,
2013-01-11 09:00:00,49.8,47.9,30.20,NE,45,4.0,5.0,93,0.00,,,0.02,Wunderground v.1.15,2013-01-11 14:00:00,
2013-01-11 09:05:00,49.6,47.7,30.20,NE,45,5.0,-999.0,93,0.01,,,0.07,Wunderground v.1.15,2013-01-11 14:05:00,
2013-01-11 09:10:00,49.5,47.6,30.20,NE,46,6.0,7.0,93,0.00,,,0.02,Wunderground v.1.15,2013-01-11 14:10:00,
2013-01-11 09:15:00,49.5,47.8,30.20,NE,45,6.0,-999.0,94,0.01,,,0.07,Wunderground v.1.15,2013-01-11 14:15:00,
2013-01-11 09:20:00,49.4,47.7,30.20,NE,49,5.0,5.0,94,0.00,,,0.02,Wunderground v.1.15,2013-01-11 14:20:00,
2013-01-11 09:25:00,49.4,47.7,30.19,NE,45,6.0,-999.0,94,0.01,,,0.07,Wunderground v.1.15,2013-01-11 14:25:00,
2013-01-11 09:30:00,49.5,47.8,30.19,NE,46,5.0,5.0,94,0.00,,,0.02,Wunderground v.1.15,2013-01-11 14:30:00,
2013-01-11 09:35:00,49.5,48.1,30.19,NE,45,4.0,-999.0,95,0.02,,,0.07,Wunderground v.1.15,2013-01-11 14:35:00,
2013-01-11 09:40:00,49.5,47.8,30.19,NE,46,5.0,6.0,94,0.00,,,0.03,Wunderground v.1.15,2013-01-11 14:40:00,
2013-01-11 09:45:00,49.5,48.1,30.19,NE,45,5.0,-999.0,95,0.02,,,0.07,Wunderground v.1.15,2013-01-11 14:45:00,
2013-01-11 09:50:00,49.5,48.1,30.18,NE,47,4.0,4.0,95,0.00,,,0.03,Wunderground v.1.15,2013-01-11 14:50:00,
2013-01-11 09:55:00,49.5,48.1,30.18,NE,46,3.0,4.0,95,0.00,,,0.03,Wunderground v.1.15,2013-01-11 14:55:00,
2013-01-11 10:00:00,49.6,48.2,30.17,NE,45,4.0,4.0,95,0.00,,,0.03,Wunderground v.1.15,2013-01-11 15:00:00,
2013-01-11 10:05:00,49.8,48.4,30.18,NE,45,3.0,-999.0,95,0.01,,,0.07,Wunderground v.1.15,2013-01-11 15:05:00,
2013-01-11 10:10:00,50.1,48.7,30.18,NE,44,3.0,4.0,95,0.00,,,0.03,Wunderground v.1.15,2013-01-11 15:10:00,
2013-01-11 10:15:00,50.2,48.8,30.17,NE,45,4.0,-999.0,95,0.01,,,0.07,Wunderground v.1.15,2013-01-11 15:15:00,
2013-01-11 10:20:00,50.4,49.0,30.17,NE,45,4.0,-999.0,95,0.01,,,0.07,Wunderground v.1.15,2013-01-11 15:20:00,
2013-01-11 10:25:00,50.4,49.0,30.17,NE,42,4.0,4.0,95,0.00,,,0.03,Wunderground v.1.15,2013-01-11 15:25:00,
2013-01-11 10:30:00,50.5,49.1,30.17,NE,42,2.0,2.0,95,0.00,,,0.03,Wunderground v.1.15,2013-01-11 15:30:00,
2013-01-11 10:35:00,50.8,49.4,30.17,NE,45,3.0,-999.0,95,0.00,,,0.07,Wunderground v.1.15,2013-01-11 15:35:00,
2013-01-11 10:40:00,51.1,49.4,30.17,NE,41,1.0,1.0,94,0.00,,,0.03,Wunderground v.1.15,2013-01-11 15:40:00,
2013-01-11 10:45:00,51.4,49.7,30.17,NE,45,3.0,-999.0,94,0.00,,,0.07,Wunderground v.1.15,2013-01-11 15:45:00,
2013-01-11 10:50:00,52.0,50.3,30.16,NE,40,3.0,3.0,94,0.00,,,0.03,Wunderground v.1.15,2013-01-11 15:50:00,
2013-01-11 10:55:00,52.2,50.2,30.16,N/A,-737280,0.0,-999.0,93,0.00,,,0.07,Wunderground v.1.15,2013-01-11 15:55:00,
2013-01-11 11:00:00,52.8,50.5,30.15,NE,38,2.0,2.0,92,0.00,,,0.03,Wunderground v.1.15,2013-01-11 16:00:00,
2013-01-11 11:05:00,53.1,50.5,30.15,NE,45,1.0,-999.0,91,0.00,,,0.07,Wunderground v.1.15,2013-01-11 16:05:00,
2013-01-11 11:10:00,53.5,50.6,30.14,NE,38,2.0,2.0,90,0.00,,,0.03,Wunderground v.1.15,2013-01-11 16:10:00,
2013-01-11 11:15:00,53.9,51.3,30.14,NE,38,3.0,4.0,91,0.00,,,0.03,Wunderground v.1.15,2013-01-11 16:15:00,
2013-01-11 11:20:00,54.4,51.5,30.14,NE,38,3.0,5.0,90,0.00,,,0.03,Wunderground v.1.15,2013-01-11 16:20:00,
2013-01-11 11:25:00,54.5,51.6,30.13,NE,45,4.0,-999.0,90,0.00,,,0.07,Wunderground v.1.15,2013-01-11 16:25:00,
2013-01-11 11:30:00,54.8,51.6,30.13,NE,38,2.0,2.0,89,0.00,,,0.03,Wunderground v.1.15,2013-01-11 16:30:00,
2013-01-11 11:35:00,55.0,52.1,30.13,NE,45,3.0,-999.0,90,0.00,,,0.07,Wunderground v.1.15,2013-01-11 16:35:00,
2013-01-11 11:40:00,55.3,52.1,30.12,NE,38,2.0,2.0,89,0.00,,,0.03,Wunderground v.1.15,2013-01-11 16:40:00,
2013-01-11 11:45:00,55.6,52.4,30.11,N/A,-737280,0.0,-999.0,89,0.00,,,0.07,Wunderground v.1.15,2013-01-11 16:45:00,
2013-01-11 11:50:00,56.2,52.7,30.11,NE,38,0.0,0.0,88,0.00,,,0.03,Wunderground v.1.15,2013-01-11 16:50:00,
2013-01-11 11:55:00,56.3,52.5,30.11,NE,45,0.0,-999.0,87,0.00,,,0.07,Wunderground v.1.15,2013-01-11 16:55:00,
2013-01-11 12:00:00,56.6,52.5,30.11,NE,38,1.0,1.0,86,0.00,,,0.03,Wunderground v.1.15,2013-01-11 17:00:00,
2013-01-11 12:05:00,56.6,52.1,30.10,N/A,-737280,0.0,-999.0,85,0.00,,,0.07,Wunderground v.1.15,2013-01-11 17:05:00,
2013-01-11 12:10:00,56.6,52.5,30.10,NE,38,0.0,0.0,86,0.00,,,0.03,Wunderground v.1.15,2013-01-11 17:10:00,
2013-01-11 12:15:00,56.6,52.5,30.10,N/A,-737280,0.0,-999.0,86,0.00,,,0.07,Wunderground v.1.15,2013-01-11 17:15:00,
2013-01-11 12:20:00,56.6,52.8,30.10,NE,38,0.0,0.0,87,0.00,,,0.03,Wunderground v.1.15,2013-01-11 17:20:00,
2013-01-11 12:25:00,56.7,52.9,30.10,N/A,-737280,0.0,-999.0,87,0.00,,,0.07,Wunderground v.1.15,2013-01-11 17:25:00,
2013-01-11 12:30:00,56.7,52.9,30.10,NE,38,0.0,0.0,87,0.00,,,0.03,Wunderground v.1.15,2013-01-11 17:30:00,
2013-01-11 12:35:00,56.7,53.2,30.10,N/A,-737280,0.0,-999.0,88,0.00,,,0.07,Wunderground v.1.15,2013-01-11 17:35:00,
2013-01-11 12:40:00,56.7,53.8,30.10,SSE,168,1.0,5.0,90,0.00,,,0.04,Wunderground v.1.15,2013-01-11 17:40:00,
2013-01-11 12:45:00,56.9,54.3,30.09,SSE,158,2.0,-999.0,91,0.01,,,0.07,Wunderground v.1.15,2013-01-11 17:45:00,
2013-01-11 12:50:00,57.0,54.7,30.09,SSE,163,3.0,3.0,92,0.00,,,0.04,Wunderground v.1.15,2013-01-11 17:50:00,
2013-01-11 12:55:00,57.3,55.0,30.08,SSE,158,2.0,-999.0,92,0.01,,,0.07,Wunderground v.1.15,2013-01-11 17:55:00,
2013-01-11 13:00:00,57.5,54.6,30.08,SSE,165,2.0,2.0,90,0.00,,,0.04,Wunderground v.1.15,2013-01-11 18:00:00,
2013-01-11 13:05:00,57.6,54.7,30.08,N/A,-737280,0.0,-999.0,90,0.01,,,0.07,Wunderground v.1.15,2013-01-11 18:05:00,
2013-01-11 13:10:00,58.0,55.1,30.08,South,173,1.0,1.0,90,0.00,,,0.04,Wunderground v.1.15,2013-01-11 18:10:00,
2013-01-11 13:15:00,58.3,55.4,30.08,N/A,-737280,0.0,-999.0,90,0.01,,,0.07,Wunderground v.1.15,2013-01-11 18:15:00,
2013-01-11 13:20:00,58.6,55.7,30.08,South,189,1.0,1.0,90,0.00,,,0.04,Wunderground v.1.15,2013-01-11 18:20:00,
2013-01-11 13:25:00,58.7,55.8,30.08,South,190,0.0,1.0,90,0.00,,,0.04,Wunderground v.1.15,2013-01-11 18:25:00,
2013-01-11 13:30:00,58.9,56.0,30.08,South,190,0.0,0.0,90,0.00,,,0.04,Wunderground v.1.15,2013-01-11 18:30:00,
2013-01-11 13:35:00,58.9,55.7,30.08,N/A,-737280,0.0,-999.0,89,0.01,,,0.07,Wunderground v.1.15,2013-01-11 18:35:00,
2013-01-11 13:40:00,58.7,55.2,30.08,South,185,0.0,3.0,88,0.00,,,0.04,Wunderground v.1.15,2013-01-11 18:40:00,
2013-01-11 13:45:00,58.7,54.8,30.07,N/A,-737280,0.0,-999.0,87,0.00,,,0.07,Wunderground v.1.15,2013-01-11 18:45:00,
2013-01-11 13:50:00,59.0,55.1,30.07,South,185,1.0,1.0,87,0.00,,,0.04,Wunderground v.1.15,2013-01-11 18:50:00,
2013-01-11 13:55:00,59.0,55.1,30.07,South,180,2.0,-999.0,87,0.00,,,0.07,Wunderground v.1.15,2013-01-11 18:55:00,
2013-01-11 14:00:00,59.0,55.1,30.07,South,183,2.0,2.0,87,0.00,,,0.04,Wunderground v.1.15,2013-01-11 19:00:00,
2013-01-11 14:05:00,58.9,54.7,30.08,South,180,5.0,-999.0,86,0.00,,,0.07,Wunderground v.1.15,2013-01-11 19:05:00,
2013-01-11 14:10:00,58.6,54.7,30.08,SSW,196,3.0,3.0,87,0.00,,,0.05,Wunderground v.1.15,2013-01-11 19:10:00,
2013-01-11 14:15:00,58.3,55.1,30.08,SSW,197,3.0,4.0,89,0.09,,,0.06,Wunderground v.1.15,2013-01-11 19:15:00,
2013-01-11 14:20:00,58.1,55.2,30.08,N/A,-737280,0.0,-999.0,90,0.02,,,0.07,Wunderground v.1.15,2013-01-11 19:20:00,
2013-01-11 14:25:00,57.8,55.2,30.08,SSW,196,0.0,1.0,91,0.05,,,0.06,Wunderground v.1.15,2013-01-11 19:25:00,
2013-01-11 14:30:00,57.6,55.3,30.08,N/A,-737280,0.0,-999.0,92,0.02,,,0.07,Wunderground v.1.15,2013-01-11 19:30:00,
2013-01-11 14:35:00,57.5,55.5,30.09,SSW,196,0.0,0.0,93,0.04,,,0.07,Wunderground v.1.15,2013-01-11 19:35:00,
2013-01-11 14:40:00,57.3,55.6,30.08,SSW,197,0.0,0.0,94,0.04,,,0.07,Wunderground v.1.15,2013-01-11 19:40:00,
2013-01-11 14:45:00,57.3,55.6,30.08,N/A,-737280,0.0,-999.0,94,0.03,,,0.07,Wunderground v.1.15,2013-01-11 19:45:00,
2013-01-11 14:50:00,57.5,56.1,30.08,SSW,196,0.0,0.0,95,0.00,,,0.07,Wunderground v.1.15,2013-01-11 19:50:00,
2013-01-11 14:55:00,57.5,56.1,30.08,N/A,-737280,0.0,-999.0,95,0.03,,,0.07,Wunderground v.1.15,2013-01-11 19:55:00,
2013-01-11 15:00:00,57.5,56.1,30.08,SSW,196,0.0,0.0,95,0.00,,,0.07,Wunderground v.1.15,2013-01-11 20:00:00,
2013-01-11 15:05:00,57.5,55.8,30.07,N/A,-737280,0.0,-999.0,94,0.03,,,0.07,Wunderground v.1.15,2013-01-11 20:05:00,
2013-01-11 15:10:00,57.5,55.8,30.08,SSW,196,0.0,0.0,94,0.00,,,0.07,Wunderground v.1.15,2013-01-11 20:10:00,
2013-01-11 15:15:00,57.3,55.6,30.08,SSW,196,0.0,0.0,94,0.00,,,0.07,Wunderground v.1.15,2013-01-11 20:15:00,
2013-01-11 15:20:00,57.2,55.5,30.08,SSW,196,0.0,0.0,94,0.00,,,0.07,Wunderground v.1.15,2013-01-11 20:20:00,
2013-01-11 15:25:00,57.2,55.8,30.08,N/A,-737280,0.0,-999.0,95,0.01,,,0.07,Wunderground v.1.15,2013-01-11 20:25:00,
2013-01-11 15:30:00,57.2,55.8,30.08,SSW,196,0.0,0.0,95,0.00,,,0.07,Wunderground v.1.15,2013-01-11 20:30:00,
2013-01-11 15:35:00,57.2,55.8,30.07,SSW,196,0.0,0.0,95,0.00,,,0.07,Wunderground v.1.15,2013-01-11 20:35:00,
2013-01-11 15:40:00,57.0,55.6,30.07,SSW,196,0.0,0.0,95,0.00,,,0.07,Wunderground v.1.15,2013-01-11 20:40:00,
2013-01-11 15:45:00,57.0,55.6,30.07,N/A,-737280,0.0,-999.0,95,0.00,,,0.07,Wunderground v.1.15,2013-01-11 20:45:00,
2013-01-11 15:50:00,56.9,55.5,30.08,SSW,196,0.0,0.0,95,0.00,,,0.07,Wunderground v.1.15,2013-01-11 20:50:00,
2013-01-11 15:55:00,56.7,55.3,30.08,N/A,-737280,0.0,-999.0,95,0.00,,,0.07,Wunderground v.1.15,2013-01-11 20:55:00,
2013-01-11 16:00:00,56.6,55.2,30.08,SSW,196,0.0,0.0,95,0.00,,,0.07,Wunderground v.1.15,2013-01-11 21:00:00,
2013-01-11 16:05:00,56.6,55.2,30.08,N/A,-737280,0.0,-999.0,95,0.00,,,0.07,Wunderground v.1.15,2013-01-11 21:05:00,
2013-01-11 16:10:00,56.5,55.1,30.07,SSW,197,0.0,0.0,95,0.00,,,0.07,Wunderground v.1.15,2013-01-11 21:10:00,
2013-01-11 16:15:00,56.6,55.2,30.07,N/A,-737280,0.0,-999.0,95,0.00,,,0.07,Wunderground v.1.15,2013-01-11 21:15:00,
2013-01-11 16:20:00,56.7,55.6,30.08,SSW,196,0.0,0.0,96,0.00,,,0.07,Wunderground v.1.15,2013-01-11 21:20:00,
2013-01-11 16:25:00,56.6,55.5,30.07,N/A,-737280,0.0,-999.0,96,0.00,,,0.07,Wunderground v.1.15,2013-01-11 21:25:00,
2013-01-11 16:30:00,56.6,55.5,30.08,SSW,197,0.0,0.0,96,0.00,,,0.07,Wunderground v.1.15,2013-01-11 21:30:00,
2013-01-11 16:35:00,56.6,55.5,30.07,SSW,196,0.0,0.0,96,0.00,,,0.07,Wunderground v.1.15,2013-01-11 21:35:00,
2013-01-11 16:40:00,56.5,55.4,30.07,SSW,196,0.0,0.0,96,0.00,,,0.07,Wunderground v.1.15,2013-01-11 21:40:00,
2013-01-11 16:45:00,56.5,55.4,30.07,N/A,-737280,0.0,-999.0,96,0.00,,,0.07,Wunderground v.1.15,2013-01-11 21:45:00,
2013-01-11 16:50:00,56.3,55.2,30.07,SSW,196,0.0,0.0,96,0.00,,,0.07,Wunderground v.1.15,2013-01-11 21:50:00,
2013-01-11 16:55:00,56.3,55.2,30.07,N/A,-737280,0.0,-999.0,96,0.00,,,0.07,Wunderground v.1.15,2013-01-11 21:55:00,
2013-01-11 17:00:00,56.3,55.2,30.07,SSW,197,0.0,0.0,96,0.00,,,0.07,Wunderground v.1.15,2013-01-11 22:00:00,
2013-01-11 17:05:00,56.2,55.1,30.07,SSW,197,0.0,0.0,96,0.00,,,0.07,Wunderground v.1.15,2013-01-11 22:05:00,
2013-01-11 17:10:00,55.9,54.8,30.07,SSW,196,0.0,0.0,96,0.00,,,0.07,Wunderground v.1.15,2013-01-11 22:10:00,
2013-01-11 17:15:00,55.4,54.0,30.07,N/A,-737280,0.0,-999.0,95,0.00,,,0.07,Wunderground v.1.15,2013-01-11 22:15:00,
2013-01-11 17:20:00,54.8,53.7,30.07,SSW,196,0.0,0.0,96,0.00,,,0.07,Wunderground v.1.15,2013-01-11 22:20:00,
2013-01-11 17:25:00,54.5,53.4,30.07,SSW,197,0.0,0.0,96,0.00,,,0.07,Wunderground v.1.15,2013-01-11 22:25:00,
2013-01-11 17:30:00,54.2,53.1,30.08,N/A,-737280,0.0,-999.0,96,0.00,,,0.07,Wunderground v.1.15,2013-01-11 22:30:00,
2013-01-11 17:35:00,53.8,52.7,30.08,SSW,197,0.0,0.0,96,0.00,,,0.07,Wunderground v.1.15,2013-01-11 22:35:00,
2013-01-11 17:40:00,53.5,52.4,30.08,SSW,197,0.0,0.0,96,0.00,,,0.07,Wunderground v.1.15,2013-01-11 22:40:00,
2013-01-11 17:45:00,53.3,52.2,30.08,N/A,-737280,0.0,-999.0,96,0.00,,,0.07,Wunderground v.1.15,2013-01-11 22:45:00,
2013-01-11 17:50:00,53.1,52.3,30.09,SSW,196,0.0,0.0,97,0.00,,,0.07,Wunderground v.1.15,2013-01-11 22:50:00,
2013-01-11 17:55:00,52.9,52.1,30.09,N/A,-737280,0.0,-999.0,97,0.00,,,0.07,Wunderground v.1.15,2013-01-11 22:55:00,
2013-01-11 18:00:00,52.8,52.0,30.09,SSW,197,0.0,0.0,97,0.00,,,0.07,Wunderground v.1.15,2013-01-11 23:00:00,
2013-01-11 18:05:00,52.6,51.8,30.10,N/A,-737280,0.0,-999.0,97,0.00,,,0.07,Wunderground v.1.15,2013-01-11 23:05:00,
2013-01-11 18:10:00,52.0,50.9,30.10,SSW,197,0.0,0.0,96,0.00,,,0.07,Wunderground v.1.15,2013-01-11 23:10:00,
2013-01-11 18:15:00,51.7,50.9,30.10,N/A,-737280,0.0,-999.0,97,0.00,,,0.07,Wunderground v.1.15,2013-01-11 23:15:00,
2013-01-11 18:20:00,51.6,50.8,30.10,SSW,197,0.0,0.0,97,0.00,,,0.07,Wunderground v.1.15,2013-01-11 23:20:00,
2013-01-11 18:25:00,51.4,50.6,30.10,SSW,196,0.0,0.0,97,0.00,,,0.07,Wunderground v.1.15,2013-01-11 23:25:00,
2013-01-11 18:30:00,51.3,50.5,30.10,SSW,197,0.0,0.0,97,0.00,,,0.07,Wunderground v.1.15,2013-01-11 23:30:00,
2013-01-11 18:35:00,51.3,50.8,30.10,N/A,-737280,0.0,-999.0,98,0.00,,,0.07,Wunderground v.1.15,2013-01-11 23:35:00,
2013-01-11 18:40:00,51.1,50.3,30.10,SSW,196,0.0,0.0,97,0.00,,,0.07,Wunderground v.1.15,2013-01-11 23:40:00,
2013-01-11 18:45:00,51.0,50.5,30.10,N/A,-737280,0.0,-999.0,98,0.00,,,0.07,Wunderground v.1.15,2013-01-11 23:45:00,
2013-01-11 18:50:00,50.5,49.7,30.10,SSW,197,0.0,0.0,97,0.00,,,0.07,Wunderground v.1.15,2013-01-11 23:50:00,
2013-01-11 18:55:00,50.2,49.7,30.10,N/A,-737280,0.0,-999.0,98,0.00,,,0.07,Wunderground v.1.15,2013-01-11 23:55:00,
2013-01-11 19:00:00,50.1,49.6,30.11,SSW,196,0.0,0.0,98,0.00,,,0.07,Wunderground v.1.15,2013-01-12 00:00:00,
2013-01-11 19:05:00,50.4,50.1,30.11,N/A,-737280,0.0,-999.0,99,0.00,,,0.07,Wunderground v.1.15,2013-01-12 00:05:00,
2013-01-11 19:10:00,50.7,50.4,30.11,SSW,196,0.0,0.0,99,0.00,,,0.07,Wunderground v.1.15,2013-01-12 00:10:00,
2013-01-11 19:15:00,50.8,50.5,30.11,SSW,196,0.0,0.0,99,0.00,,,0.07,Wunderground v.1.15,2013-01-12 00:15:00,
2013-01-11 19:20:00,51.0,50.7,30.11,SSW,196,0.0,0.0,99,0.00,,,0.07,Wunderground v.1.15,2013-01-12 00:20:00,
2013-01-11 19:25:00,51.0,50.7,30.11,N/A,-737280,0.0,-999.0,99,0.00,,,0.07,Wunderground v.1.15,2013-01-12 00:25:00,
2013-01-11 19:30:00,51.0,50.7,30.11,SSW,196,0.0,0.0,99,0.00,,,0.07,Wunderground v.1.15,2013-01-12 00:30:00,
2013-01-11 19:35:00,51.0,50.7,30.11,SSW,197,0.0,0.0,99,0.00,,,0.07,Wunderground v.1.15,2013-01-12 00:35:00,
2013-01-11 19:40:00,50.8,50.5,30.11,SSW,197,0.0,0.0,99,0.00,,,0.07,Wunderground v.1.15,2013-01-12 00:40:00,
2013-01-11 19:45:00,50.8,50.5,30.11,N/A,-737280,0.0,-999.0,99,0.00,,,0.07,Wunderground v.1.15,2013-01-12 00:45:00,
2013-01-11 19:50:00,50.2,49.7,30.11,SSW,197,0.0,0.0,98,0.00,,,0.07,Wunderground v.1.15,2013-01-12 00:50:00,
2013-01-11 19:55:00,49.8,49.3,30.11,N/A,-737280,0.0,-999.0,98,0.00,,,0.07,Wunderground v.1.15,2013-01-12 00:55:00,
2013-01-11 20:00:00,49.2,48.7,30.11,SSW,197,0.0,0.0,98,0.00,,,0.07,Wunderground v.1.15,2013-01-12 01:00:00,
2013-01-11 20:05:00,48.9,48.4,30.11,N/A,-737280,0.0,-999.0,98,0.00,,,0.07,Wunderground v.1.15,2013-01-12 01:05:00,
2013-01-11 20:10:00,48.6,48.1,30.11,SSW,197,0.0,0.0,98,0.00,,,0.07,Wunderground v.1.15,2013-01-12 01:10:00,
2013-01-11 20:15:00,48.5,48.2,30.11,N/A,-737280,0.0,-999.0,99,0.00,,,0.07,Wunderground v.1.15,2013-01-12 01:15:00,
2013-01-11 20:20:00,48.3,48.0,30.11,SSW,196,0.0,0.0,99,0.00,,,0.07,Wunderground v.1.15,2013-01-12 01:20:00,
2013-01-11 20:25:00,48.3,48.0,30.11,SSW,197,0.0,0.0,99,0.00,,,0.07,Wunderground v.1.15,2013-01-12 01:25:00,
2013-01-11 20:30:00,48.5,48.2,30.11,SSW,196,0.0,0.0,99,0.00,,,0.07,Wunderground v.1.15,2013-01-12 01:30:00,
2013-01-11 20:35:00,48.9,48.6,30.11,N/A,-737280,0.0,-999.0,99,0.00,,,0.07,Wunderground v.1.15,2013-01-12 01:35:00,
2013-01-11 20:40:00,48.6,48.3,30.11,SSW,197,0.0,0.0,99,0.00,,,0.07,Wunderground v.1.15,2013-01-12 01:40:00,
2013-01-11 20:45:00,48.9,48.6,30.11,SSW,197,0.0,0.0,99,0.00,,,0.07,Wunderground v.1.15,2013-01-12 01:45:00,
2013-01-11 20:50:00,49.1,48.8,30.11,SSW,197,0.0,0.0,99,0.00,,,0.07,Wunderground v.1.15,2013-01-12 01:50:00,
2013-01-11 20:55:00,48.5,48.2,30.11,N/A,-737280,0.0,-999.0,99,0.00,,,0.07,Wunderground v.1.15,2013-01-12 01:55:00,
2013-01-11 21:00:00,48.0,47.7,30.11,SSW,197,0.0,0.0,99,0.00,,,0.07,Wunderground v.1.15,2013-01-12 02:00:00,
2013-01-11 21:05:00,48.2,47.9,30.11,N/A,-737280,0.0,-999.0,99,0.00,,,0.07,Wunderground v.1.15,2013-01-12 02:05:00,
2013-01-11 21:10:00,48.3,48.0,30.11,SSW,196,0.0,0.0,99,0.00,,,0.07,Wunderground v.1.15,2013-01-12 02:10:00,
2013-01-11 21:15:00,48.3,48.0,30.11,N/A,-737280,0.0,-999.0,99,0.00,,,0.07,Wunderground v.1.15,2013-01-12 02:15:00,
2013-01-11 21:20:00,48.2,47.9,30.11,SSW,196,0.0,0.0,99,0.00,,,0.07,Wunderground v.1.15,2013-01-12 02:20:00,
2013-01-11 21:25:00,47.9,47.6,30.11,N/A,-737280,0.0,-999.0,99,0.00,,,0.07,Wunderground v.1.15,2013-01-12 02:25:00,
2013-01-11 21:30:00,47.9,47.6,30.11,SSW,196,0.0,0.0,99,0.00,,,0.07,Wunderground v.1.15,2013-01-12 02:30:00,
2013-01-11 21:35:00,47.9,47.6,30.11,SSW,196,0.0,0.0,99,0.00,,,0.07,Wunderground v.1.15,2013-01-12 02:35:00,
2013-01-11 21:40:00,47.7,47.4,30.11,SSW,197,0.0,0.0,99,0.00,,,0.07,Wunderground v.1.15,2013-01-12 02:40:00,
2013-01-11 21:45:00,47.6,47.3,30.11,N/A,-737280,0.0,-999.0,99,0.00,,,0.07,Wunderground v.1.15,2013-01-12 02:45:00,
2013-01-11 21:50:00,47.9,47.9,30.11,SSW,197,0.0,0.0,100,0.00,,,0.07,Wunderground v.1.15,2013-01-12 02:50:00,
2013-01-11 21:55:00,48.0,47.7,30.11,N/A,-737280,0.0,-999.0,99,0.00,,,0.07,Wunderground v.1.15,2013-01-12 02:55:00,
2013-01-11 22:00:00,47.6,47.3,30.11,SSW,196,0.0,0.0,99,0.00,,,0.07,Wunderground v.1.15,2013-01-12 03:00:00,
2013-01-11 22:05:00,47.3,47.0,30.11,SSW,197,0.0,0.0,99,0.00,,,0.07,Wunderground v.1.15,2013-01-12 03:05:00,
2013-01-11 22:10:00,47.0,46.7,30.11,SSW,197,0.0,0.0,99,0.00,,,0.07,Wunderground v.1.15,2013-01-12 03:10:00,
2013-01-11 22:15:00,46.5,46.2,30.11,N/A,-737280,0.0,-999.0,99,0.00,,,0.07,Wunderground v.1.15,2013-01-12 03:15:00,
2013-01-11 22:20:00,46.2,45.9,30.11,SSW,197,0.0,0.0,99,0.00,,,0.07,Wunderground v.1.15,2013-01-12 03:20:00,
2013-01-11 22:25:00,46.1,45.8,30.11,N/A,-737280,0.0,-999.0,99,0.00,,,0.07,Wunderground v.1.15,2013-01-12 03:25:00,
2013-01-11 22:30:00,45.8,45.5,30.11,SSW,197,0.0,0.0,99,0.00,,,0.07,Wunderground v.1.15,2013-01-12 03:30:00,
2013-01-11 22:35:00,45.5,45.2,30.11,N/A,-737280,0.0,-999.0,99,0.00,,,0.07,Wunderground v.1.15,2013-01-12 03:35:00,
2013-01-11 22:40:00,45.4,45.1,30.11,SSW,197,0.0,0.0,99,0.00,,,0.07,Wunderground v.1.15,2013-01-12 03:40:00,
2013-01-11 22:45:00,45.2,44.9,30.11,N/A,-737280,0.0,-999.0,99,0.00,,,0.07,Wunderground v.1.15,2013-01-12 03:45:00,
2013-01-11 22:50:00,45.2,44.9,30.11,SSW,196,0.0,0.0,99,0.00,,,0.07,Wunderground v.1.15,2013-01-12 03:50:00,
2013-01-11 22:55:00,45.2,44.9,30.11,SSW,197,0.0,0.0,99,0.00,,,0.07,Wunderground v.1.15,2013-01-12 03:55:00,
2013-01-11 23:00:00,45.2,44.9,30.11,SSW,197,0.0,0.0,99,0.00,,,0.07,Wunderground v.1.15,2013-01-12 04:00:00,
2013-01-11 23:05:00,45.5,45.5,30.11,SSW,197,0.0,0.0,100,0.00,,,0.07,Wunderground v.1.15,2013-01-12 04:05:00,
2013-01-11 23:10:00,45.7,45.7,30.11,SSW,196,0.0,0.0,100,0.00,,,0.07,Wunderground v.1.15,2013-01-12 04:10:00,
2013-01-11 23:15:00,46.4,46.4,30.11,N/A,-737280,0.0,-999.0,100,0.00,,,0.07,Wunderground v.1.15,2013-01-12 04:15:00,
2013-01-11 23:20:00,47.1,47.1,30.11,SSW,196,0.0,0.0,100,0.00,,,0.07,Wunderground v.1.15,2013-01-12 04:20:00,
2013-01-11 23:25:00,47.4,47.4,30.11,N/A,-737280,0.0,-999.0,100,0.00,,,0.07,Wunderground v.1.15,2013-01-12 04:25:00,
2013-01-11 23:30:00,47.7,47.7,30.11,SSW,196,0.0,0.0,100,0.00,,,0.07,Wunderground v.1.15,2013-01-12 04:30:00,
2013-01-11 23:35:00,47.6,47.6,30.11,N/A,-737280,0.0,-999.0,100,0.00,,,0.07,Wunderground v.1.15,2013-01-12 04:35:00,
2013-01-11 23:40:00,47.3,47.3,30.11,SSW,196,0.0,0.0,100,0.00,,,0.07,Wunderground v.1.15,2013-01-12 04:40:00,
2013-01-11 23:45:00,47.3,47.3,30.11,N/A,-737280,0.0,-999.0,100,0.00,,,0.07,Wunderground v.1.15,2013-01-12 04:45:00,
2013-01-11 23:50:00,47.3,47.3,30.11,SSW,196,0.0,0.0,100,0.00,,,0.07,Wunderground v.1.15,2013-01-12 04:50:00,
2013-01-11 23:55:00,47.3,47.3,30.11,N/A,-737280,0.0,-999.0,100,0.00,,,0.07,Wunderground v.1.15,2013-01-12 04:55:00,